Details From SBGR - Sao Paulo - Guarulhos
To SBPA - Salgado Filho
Flight Number -
Tags decoded
Created
Modified
Stats Distance 468 nm / 866 km
Max Altitude 0 ft / 0 m
Waypoints 2
Social Downloads 0
Likes 0
Share VATSIM

Download

Looking for another format? Having issues loading an existing format? Contact us
Advertisement - Login to hide

Notes

SBGR UBSOD UZ38 EKUTI SBPA

Route

SBGR SBPA

ID Type Via Altitude Latitude Longitude Leg Dist Tot Dist Heading (true) Name
O SBGR APT - 0 ft / 0 m -23.43233˚ -46.46968˚ - 0 nm - Sao Paulo - Guarulhos
O SBPA APT - 0 ft / 0 m -29.99443˚ -51.17143˚ 467 nm 467 nm 212° / 214° Salgado Filho

Altitude Profile

Advertisement - Login to hide

Weather


0- 5 10 15 20 25 30 35+ Temperature / ° C

Clouds and Precipitation
Forecast for 2018-01-22 06:00 UTC. Updated an hour ago

Ground ~20,000 ft ~40,000 ft Winds

SBGR

Details ICAO SBGR (GRU)
Name Sao Paulo - Guarulhos
Region Brazil
Timezone America/Sao_Paulo (UTC-2.0)
Stats Elevation 2,459 ft / 750 m (AMSL)
Location -23.432333° -46.469675°
Runways 2
Magnetic Variation 21.426° W

METAR

SBGR 220400Z 04003KT 9999 SCT013 22/21 Q1016

Decode

TAF

TAF TAF SBGR 212200Z 2200/2306 16005KT 9999 BKN020TN20/2208Z TX31/2217Z BECMG 2200/2202 08005KT CAVOK BECMG 2205/2207 06003KT BKN010 PROB30 2207/2211 6000 BKN008 BECMG 2214/2216 32007KT SCT035 PROB30 2218/2223 8000 TSRA BKN030 FEW040CB BECMG 2223/2301 06005KT CAVOK RMK PHG

Decode

Departure Runways

ID Width Length Bearing (true) Bearing (mag) Surface Threshold Offset Overrun Length
09L 148 ft / 45 m 12,676 ft / 3,864 m 73.61° 95.04° Asphalt 495 ft / 151 m 0 ft / 0 m
09R 148 ft / 45 m 9,950 ft / 3,033 m 73.60° 95.03° Asphalt 0 ft / 0 m 197 ft / 60 m
27L 148 ft / 45 m 9,950 ft / 3,033 m 253.59° 275.02° Asphalt 0 ft / 0 m 197 ft / 60 m
27R 148 ft / 45 m 12,676 ft / 3,864 m 253.60° 275.03° Asphalt 197 ft / 60 m 0 ft / 0 m

SBPA

Details ICAO SBPA (POA)
Name Salgado Filho
Region Brazil
Timezone America/Sao_Paulo (UTC-2.0)
Stats Elevation 11 ft / 3 m (AMSL)
Location -29.994428° -51.171426°
Runways 1
Magnetic Variation 16.894° W

METAR

SBPA 220400Z 13003KT 9999 FEW030 22/21 Q1007

Decode

TAF

Not found

Destination Runways

ID Width Length Bearing (true) Bearing (mag) Surface Threshold Offset Overrun Length
11 138 ft / 42 m 7,487 ft / 2,282 m 91.60° 108.49° Asphalt 0 ft / 0 m 230 ft / 70 m
29 138 ft / 42 m 7,487 ft / 2,282 m 271.59° 288.48° Asphalt 0 ft / 0 m 197 ft / 60 m

Approach Navaids

Runway Type Ident Frequency Range Bearing (true) Bearing (mag) Slope Elevation
11 Localiser IPA 110.30 MHz 18 nm / 33 km 90.92° 107.82° - 11 ft / 3 m (AMSL)
11 Glidescope IPA 110.30 MHz 10 nm / 19 km 91.60° 108.49° 3.00° 11 ft / 3 m (AMSL)

Popular Alternatives